Time;durP1;ratioP1;P1;durP2;ratioP2;P2;SDS_P1;SDS_P2;PMS_P1;PMS_P2;Temp;Humidity;BMP_temperature;BMP_pressure;BME280_temperature;BME280_humidity;BME280_pressure;Samples;Min_cycle;Max_cycle;Signal;HPM_P1;HPM_P2
2023/12/26 00:00:29;;;;;;;;;4.00;2.00;;;;;12.73;61.47;101085.16;4994686;28;45443;-69
2023/12/26 00:02:55;;;;;;;;;2.00;1.33;;;;;12.83;61.48;101101.81;4993269;28;45427;-69
2023/12/26 00:05:24;;;;;;;;;1.67;1.00;;;;;12.85;61.08;101101.81;4995567;28;45373;-70
2023/12/26 00:07:54;;;;;;;;;3.00;1.00;;;;;12.88;61.35;101109.69;4994017;28;46081;-69
2023/12/26 00:10:20;;;;;;;;;3.00;1.33;;;;;12.15;61.04;100984.50;4995116;28;45340;-72
2023/12/26 00:12:45;;;;;;;;;3.67;2.00;;;;;12.90;61.09;101113.19;4994420;28;45496;-71
2023/12/26 00:15:11;;;;;;;;;3.67;1.00;;;;;12.02;60.89;100981.03;5027018;28;45372;-69
2023/12/26 00:17:37;;;;;;;;;4.67;2.00;;;;;12.47;61.39;101051.03;4993253;28;46192;-70
2023/12/26 00:20:04;;;;;;;;;6.33;3.00;;;;;12.59;61.17;101057.16;4996405;28;45655;-71
2023/12/26 00:22:30;;;;;;;;;5.00;2.33;;;;;12.84;60.98;101097.44;4996166;28;45574;-71
2023/12/26 00:25:03;;;;;;;;;4.33;2.67;;;;;12.33;61.37;101009.91;4994042;28;46770;-70
2023/12/26 00:27:28;;;;;;;;;3.00;2.00;;;;;11.97;61.39;100949.53;4994807;28;46457;-71
2023/12/26 00:29:58;;;;;;;;;3.00;1.00;;;;;12.65;60.85;101054.53;4993079;28;45612;-69
2023/12/26 00:32:23;;;;;;;;;2.67;2.00;;;;;12.76;60.88;101075.53;4995724;28;45514;-71
2023/12/26 00:34:49;;;;;;;;;5.67;2.33;;;;;12.85;60.81;101086.03;4993549;28;45388;-70
2023/12/26 00:37:21;;;;;;;;;2.33;2.00;;;;;12.62;60.84;101050.13;4993450;28;45370;-71
2023/12/26 00:39:47;;;;;;;;;3.00;3.00;;;;;12.78;61.32;101077.28;4994091;28;45595;-69
2023/12/26 00:42:12;;;;;;;;;2.00;2.00;;;;;12.64;60.90;101053.63;4994675;28;45367;-71
2023/12/26 00:44:38;;;;;;;;;2.00;2.00;;;;;12.84;60.75;101085.16;4993658;28;45333;-69
2023/12/26 00:47:03;;;;;;;;;4.67;1.00;;;;;12.81;60.86;101079.03;4994384;28;46126;-69
2023/12/26 00:49:33;;;;;;;;;3.00;3.00;;;;;12.70;60.69;101055.41;4996119;28;45463;-69
2023/12/26 00:51:58;;;;;;;;;3.00;2.00;;;;;12.63;60.83;101038.75;4996696;28;45586;-70
2023/12/26 00:54:25;;;;;;;;;2.33;1.67;;;;;12.78;60.16;101074.66;4996849;28;45976;-70
2023/12/26 00:56:51;;;;;;;;;2.00;2.00;;;;;12.54;60.72;101030.03;4995974;28;45432;-69
2023/12/26 00:59:16;;;;;;;;;4.33;2.67;;;;;12.48;60.53;101025.63;4996383;28;45635;-69
2023/12/26 01:01:42;;;;;;;;;1.33;1.00;;;;;12.80;60.50;101072.03;4996351;28;45352;-69
2023/12/26 01:04:09;;;;;;;;;2.67;1.33;;;;;12.60;60.59;101048.38;4999126;28;45496;-69
2023/12/26 01:06:34;;;;;;;;;1.33;1.00;;;;;12.81;60.62;101089.53;4997419;28;46500;-70
2023/12/26 01:09:00;;;;;;;;;3.00;2.67;;;;;12.60;60.41;101046.66;4994905;28;45423;-70
2023/12/26 01:11:26;;;;;;;;;3.67;2.00;;;;;12.79;61.06;101076.41;4996756;28;45635;-70
2023/12/26 01:13:51;;;;;;;;;2.00;1.00;;;;;12.49;60.59;101027.41;4994523;28;45554;-69
2023/12/26 01:16:18;;;;;;;;;2.00;2.00;;;;;12.66;60.47;101064.16;4997348;28;45980;-69
2023/12/26 01:18:44;;;;;;;;;4.00;1.33;;;;;12.66;60.67;101064.16;4995053;28;45470;-68
2023/12/26 01:21:16;;;;;;;;;1.67;1.00;;;;;12.68;61.02;101059.78;4996299;28;45384;-69
2023/12/26 01:23:41;;;;;;;;;5.33;2.33;;;;;12.59;61.02;101050.16;4995456;28;45456;-69
2023/12/26 01:26:07;;;;;;;;;2.33;1.67;;;;;12.62;61.08;101057.16;4994742;28;47075;-69
2023/12/26 01:28:33;;;;;;;;;3.67;2.67;;;;;12.33;61.53;101029.16;4997318;28;45892;-69
2023/12/26 01:30:59;;;;;;;;;2.67;1.00;;;;;12.46;61.22;101041.41;4997315;28;45630;-68
2023/12/26 01:33:24;;;;;;;;;3.33;2.00;;;;;12.57;61.50;101067.66;4997805;28;45487;-70
2023/12/26 01:35:50;;;;;;;;;4.33;2.00;;;;;12.56;61.89;101071.19;4997073;28;46401;-69
2023/12/26 01:38:19;;;;;;;;;2.33;1.00;;;;;12.53;62.09;101060.69;4997897;28;45435;-68
2023/12/26 01:40:45;;;;;;;;;1.00;1.00;;;;;12.66;61.93;101091.31;4995047;28;45434;-68
2023/12/26 01:43:11;;;;;;;;;3.00;2.00;;;;;12.68;61.83;101076.41;4997300;28;45689;-70
2023/12/26 01:45:37;;;;;;;;;1.00;1.00;;;;;12.70;61.85;101081.69;4996392;28;46262;-71
2023/12/26 01:48:06;;;;;;;;;3.33;3.33;;;;;12.17;62.17;100986.28;4993908;28;45449;-71
2023/12/26 01:50:34;;;;;;;;;8.33;2.00;;;;;12.72;62.00;101082.56;4998966;28;45448;-72
2023/12/26 01:53:01;;;;;;;;;8.33;3.00;;;;;12.58;61.75;101056.28;4997632;28;45376;-71
2023/12/26 01:55:28;;;;;;;;;1.00;1.00;;;;;12.37;61.78;101030.03;4997521;28;45371;-69
2023/12/26 01:57:57;;;;;;;;;5.00;1.00;;;;;12.63;62.52;101083.44;4993303;28;45463;-67
2023/12/26 02:00:23;;;;;;;;;2.00;2.00;;;;;12.40;62.79;101040.53;4980383;28;45531;-66
2023/12/26 02:02:52;;;;;;;;;3.00;2.00;;;;;12.64;62.48;101086.94;4988571;28;45550;-66
2023/12/26 02:05:18;;;;;;;;;5.33;2.00;;;;;12.51;62.82;101059.81;4979060;28;45618;-66
2023/12/26 02:07:43;;;;;;;;;5.67;2.00;;;;;12.32;62.18;101035.31;4984958;28;45611;-65
2023/12/26 02:10:09;;;;;;;;;2.33;1.00;;;;;12.53;62.58;101079.06;4997910;28;45432;-66
2023/12/26 02:12:35;;;;;;;;;2.67;2.00;;;;;12.56;62.76;101078.19;4979573;28;45479;-66
2023/12/26 02:15:02;;;;;;;;;4.00;1.33;;;;;12.60;62.77;101088.72;4979821;28;45332;-65
2023/12/26 02:17:29;;;;;;;;;2.00;1.33;;;;;12.61;62.87;101100.97;5026711;28;45463;-65
2023/12/26 02:19:55;;;;;;;;;2.00;1.00;;;;;12.53;62.49;101084.34;4990191;28;45455;-66
2023/12/26 02:22:21;;;;;;;;;3.33;1.00;;;;;12.57;62.74;101091.31;4993363;28;45487;-66
2023/12/26 02:24:47;;;;;;;;;3.33;1.00;;;;;12.49;62.59;101074.69;4987919;28;45395;-66
2023/12/26 02:27:24;;;;;;;;;2.00;2.00;;;;;12.52;62.78;101095.69;4987936;28;45533;-66
2023/12/26 02:29:52;;;;;;;;;2.33;2.00;;;;;12.53;63.03;101102.72;4978654;28;45650;-67
2023/12/26 02:32:22;;;;;;;;;2.00;0.67;;;;;12.52;63.31;101100.97;4979339;28;45337;-66
2023/12/26 02:34:54;;;;;;;;;6.67;2.33;;;;;12.40;63.14;101082.56;4979626;28;46764;-64
2023/12/26 02:37:21;;;;;;;;;3.00;3.00;;;;;12.41;63.38;101095.72;4990672;28;45368;-65
2023/12/26 02:39:49;;;;;;;;;3.00;1.00;;;;;12.47;63.61;101107.97;5014496;28;45843;-66
2023/12/26 02:42:17;;;;;;;;;5.00;3.00;;;;;12.45;63.18;101105.31;4987376;28;45479;-66
2023/12/26 02:44:42;;;;;;;;;1.00;1.00;;;;;12.45;63.66;101097.44;4978066;28;46555;-65
2023/12/26 02:47:09;;;;;;;;;3.00;1.67;;;;;12.42;63.38;101094.81;4978264;28;45270;-66
2023/12/26 02:49:34;;;;;;;;;4.33;2.00;;;;;12.44;63.35;101100.09;4978712;28;45364;-66
2023/12/26 02:52:00;;;;;;;;;1.00;1.00;;;;;12.44;63.52;101100.97;4977333;28;45480;-65
2023/12/26 02:54:25;;;;;;;;;4.33;1.00;;;;;12.45;63.42;101100.06;4978113;28;45364;-67
2023/12/26 02:56:51;;;;;;;;;3.67;2.00;;;;;12.41;63.89;101086.94;4978148;28;45478;-67
2023/12/26 02:59:17;;;;;;;;;1.00;1.00;;;;;12.49;63.77;101099.22;4978478;28;45523;-69
2023/12/26 03:01:45;;;;;;;;;1.00;1.00;;;;;12.50;63.39;101093.09;4993656;28;45393;-69
2023/12/26 03:04:11;;;;;;;;;2.00;1.00;;;;;12.49;63.89;101087.81;4979856;28;45459;-67
2023/12/26 03:06:36;;;;;;;;;4.00;2.00;;;;;12.48;63.67;101089.59;4977853;28;45356;-68
2023/12/26 03:09:06;;;;;;;;;4.33;1.00;;;;;12.51;63.98;101104.47;4982330;28;45585;-68
2023/12/26 03:11:31;;;;;;;;;2.67;1.33;;;;;12.47;63.69;101098.31;4995846;28;45439;-68
2023/12/26 03:13:59;;;;;;;;;6.33;1.33;;;;;12.52;63.77;101100.97;4996632;28;46107;-67
2023/12/26 03:16:24;;;;;;;;;4.00;1.33;;;;;12.43;64.15;101096.59;4997308;28;45816;-66
2023/12/26 03:18:50;;;;;;;;;5.00;2.00;;;;;12.33;64.49;101089.56;4996616;28;45375;-66
2023/12/26 03:21:16;;;;;;;;;5.00;1.00;;;;;12.27;64.14;101072.06;4996734;28;45510;-66
2023/12/26 03:23:41;;;;;;;;;1.67;1.00;;;;;12.40;64.01;101082.56;4996296;28;45354;-66
2023/12/26 03:26:08;;;;;;;;;2.50;2.00;;;;;12.52;64.42;101112.34;4997615;28;45412;-67
2023/12/26 03:28:34;;;;;;;;;2.67;2.00;;;;;12.55;63.89;101103.56;4997271;28;45530;-66
2023/12/26 03:31:06;;;;;;;;;4.67;1.00;;;;;12.42;64.36;101091.34;4995341;28;45606;-65
2023/12/26 03:33:32;;;;;;;;;2.33;1.33;;;;;12.57;64.33;101114.97;4996632;28;45270;-67
2023/12/26 03:36:04;;;;;;;;;7.33;1.33;;;;;12.54;64.10;101099.22;4996393;28;45374;-67
2023/12/26 03:38:30;;;;;;;;;2.00;2.00;;;;;12.56;64.51;101114.97;4997810;28;45518;-66
2023/12/26 03:40:58;;;;;;;;;6.00;2.00;;;;;12.28;64.60;101065.94;4996832;28;45454;-69
2023/12/26 03:43:24;;;;;;;;;2.33;1.00;;;;;12.55;64.45;101111.44;4997220;28;46085;-67
2023/12/26 03:45:49;;;;;;;;;2.33;1.67;;;;;12.49;64.05;101093.94;4996408;28;45324;-67
2023/12/26 03:48:20;;;;;;;;;1.67;1.67;;;;;12.16;64.70;101029.16;4996774;28;45314;-67
2023/12/26 03:50:46;;;;;;;;;6.33;2.00;;;;;12.47;65.15;101100.09;4997877;28;45478;-66
2023/12/26 03:53:11;;;;;;;;;2.33;2.00;;;;;12.41;65.01;101079.06;4996469;28;45822;-67
2023/12/26 03:55:37;;;;;;;;;4.67;2.00;;;;;12.42;65.20;101093.97;4995010;28;45524;-68
2023/12/26 03:58:02;;;;;;;;;1.00;1.00;;;;;12.35;65.29;101073.81;4997058;28;45285;-67
2023/12/26 04:00:29;;;;;;;;;7.00;2.33;;;;;12.38;64.77;101076.44;4997454;28;45476;-66
2023/12/26 04:02:55;;;;;;;;;2.33;1.33;;;;;12.32;65.27;101084.34;4985238;28;47547;-66
2023/12/26 04:05:25;;;;;;;;;4.00;2.00;;;;;12.25;65.06;101060.69;4994725;28;45593;-68
2023/12/26 04:07:50;;;;;;;;;1.00;1.00;;;;;12.38;65.71;101094.81;4996140;28;45436;-66
2023/12/26 04:10:16;;;;;;;;;2.00;2.00;;;;;12.40;65.68;101103.59;4995998;28;45456;-65
2023/12/26 04:12:42;;;;;;;;;2.33;2.00;;;;;12.40;65.44;101096.56;4996344;28;45271;-67
2023/12/26 04:15:08;;;;;;;;;4.00;2.00;;;;;12.40;65.39;101096.56;4996967;28;45386;-66
2023/12/26 04:17:34;;;;;;;;;4.00;2.00;;;;;12.40;65.59;101098.34;4983170;28;45257;-66
2023/12/26 04:20:04;;;;;;;;;2.00;1.33;;;;;12.26;65.45;101079.94;4994906;28;45578;-67
2023/12/26 04:22:29;;;;;;;;;3.33;1.00;;;;;12.40;66.04;101104.44;4994920;28;47668;-66
2023/12/26 04:24:55;;;;;;;;;2.00;2.00;;;;;12.43;65.73;101115.00;4998962;28;45411;-65
2023/12/26 04:27:20;;;;;;;;;4.00;1.00;;;;;12.36;65.80;101104.44;5000038;28;45497;-64
2023/12/26 04:29:46;;;;;;;;;1.33;1.00;;;;;12.42;65.85;101123.72;4999718;28;45552;-66
2023/12/26 04:32:15;;;;;;;;;2.33;1.00;;;;;12.37;65.62;101116.72;5000159;28;45498;-65
2023/12/26 04:34:41;;;;;;;;;4.00;1.33;;;;;12.25;65.70;101089.56;5000032;28;45563;-67
2023/12/26 04:37:06;;;;;;;;;3.00;1.67;;;;;12.06;66.11;101057.16;4999164;28;45357;-66
2023/12/26 04:39:33;;;;;;;;;5.00;1.00;;;;;12.43;65.42;101122.88;4999510;28;45486;-66
2023/12/26 04:41:58;;;;;;;;;2.00;2.00;;;;;12.34;66.43;101111.44;4999166;28;45477;-68
2023/12/26 04:44:24;;;;;;;;;1.00;1.00;;;;;12.35;65.99;101102.72;4998690;28;45359;-68
2023/12/26 04:46:53;;;;;;;;;2.00;1.33;;;;;12.30;66.55;101113.22;5000256;28;45389;-66
2023/12/26 04:49:18;;;;;;;;;4.67;3.00;;;;;12.40;66.60;101129.84;5000565;28;45293;-66
2023/12/26 04:51:44;;;;;;;;;5.00;1.33;;;;;12.40;66.91;101129.84;4998833;28;45614;-66
2023/12/26 04:54:10;;;;;;;;;4.33;2.00;;;;;12.18;66.90;101098.31;4999010;28;45457;-66
2023/12/26 04:56:43;;;;;;;;;5.33;2.33;;;;;12.14;66.78;101082.56;4999141;28;45298;-66
2023/12/26 04:59:08;;;;;;;;;5.33;3.00;;;;;12.37;66.67;101120.22;4999471;28;45460;-66
2023/12/26 05:01:46;;;;;;;;;1.33;1.33;;;;;12.33;67.07;101131.59;4998422;28;45883;-66
2023/12/26 05:04:15;;;;;;;;;3.67;1.00;;;;;12.34;66.70;101130.75;4999248;28;45348;-66
2023/12/26 05:06:42;;;;;;;;;4.33;1.33;;;;;12.36;67.12;101128.09;5000189;28;45466;-67
2023/12/26 05:09:07;;;;;;;;;4.67;2.00;;;;;12.37;66.83;101146.50;5000087;28;45357;-66
2023/12/26 05:11:33;;;;;;;;;7.00;1.00;;;;;12.12;67.48;101108.81;4998457;28;45387;-66
2023/12/26 05:14:00;;;;;;;;;3.67;3.00;;;;;12.22;67.43;101121.09;4998481;28;45436;-66
2023/12/26 05:16:28;;;;;;;;;3.67;2.33;;;;;12.21;67.60;101121.94;4999842;28;45384;-66
2023/12/26 05:18:54;;;;;;;;;9.00;3.67;;;;;12.15;66.96;101121.06;5000179;28;45495;-64
2023/12/26 05:21:21;;;;;;;;;5.00;2.00;;;;;11.77;67.57;101059.72;5000138;28;46417;-66
2023/12/26 05:23:47;;;;;;;;;2.00;2.00;;;;;12.37;67.20;101161.38;5000052;28;45429;-66
2023/12/26 05:26:14;;;;;;;;;3.67;3.33;;;;;12.38;67.66;101160.50;4998526;28;45288;-66
2023/12/26 05:28:43;;;;;;;;;2.00;2.00;;;;;12.35;67.21;101169.25;4999187;28;45455;-67
2023/12/26 05:31:15;;;;;;;;;4.00;0.00;;;;;12.36;67.51;101170.13;4998266;28;47319;-67
2023/12/26 05:33:40;;;;;;;;;3.33;3.33;;;;;12.38;67.79;101165.75;4999618;28;45315;-64
2023/12/26 05:36:06;;;;;;;;;3.33;2.67;;;;;12.38;67.51;101171.00;4999661;28;45185;-66
2023/12/26 05:38:31;;;;;;;;;3.33;2.00;;;;;12.37;67.75;101172.75;4999206;28;45499;-67
2023/12/26 05:40:57;;;;;;;;;5.33;2.00;;;;;12.37;67.95;101175.38;4998010;28;45509;-67
2023/12/26 05:43:22;;;;;;;;;3.33;1.00;;;;;12.37;67.86;101179.78;4998457;28;45755;-66
2023/12/26 05:45:48;;;;;;;;;3.00;1.00;;;;;12.39;67.96;101180.66;4998260;28;45445;-66
2023/12/26 05:48:14;;;;;;;;;1.33;1.33;;;;;12.34;67.69;101174.50;4998636;28;45423;-67
2023/12/26 05:50:39;;;;;;;;;2.00;2.00;;;;;12.39;67.76;101186.78;4998223;28;45559;-66
2023/12/26 05:53:05;;;;;;;;;5.33;3.33;;;;;12.43;68.05;101192.91;4980182;28;45427;-65
2023/12/26 05:55:30;;;;;;;;;3.00;1.00;;;;;12.42;68.02;101204.28;4980121;28;45518;-66
2023/12/26 05:58:02;;;;;;;;;3.33;1.00;;;;;12.30;67.68;101186.75;4983948;28;45552;-66
2023/12/26 06:00:31;;;;;;;;;6.67;3.00;;;;;12.38;68.42;101198.13;4986349;28;47159;-67
2023/12/26 06:02:57;;;;;;;;;2.33;2.00;;;;;12.43;68.46;101206.03;4997972;28;45613;-66
2023/12/26 06:05:22;;;;;;;;;4.00;3.00;;;;;11.80;68.19;101106.09;4996965;28;45649;-67
2023/12/26 06:07:48;;;;;;;;;7.00;2.00;;;;;12.36;68.38;101197.25;4999602;28;45459;-67
2023/12/26 06:10:32;;;;;;;;;3.00;2.33;;;;;12.41;67.99;101211.31;5010909;28;47353;-65
2023/12/26 06:12:58;;;;;;;;;2.00;2.00;;;;;12.32;68.14;101192.91;4978982;28;45773;-67
2023/12/26 06:15:25;;;;;;;;;1.00;1.00;;;;;12.46;68.48;101213.94;4984377;28;45437;-67
2023/12/26 06:18:01;;;;;;;;;2.00;1.00;;;;;12.47;68.05;101215.69;4984019;28;45458;-67
2023/12/26 06:20:27;;;;;;;;;5.33;2.00;;;;;12.45;68.76;101209.53;4988880;28;45431;-68
2023/12/26 06:22:54;;;;;;;;;4.00;2.67;;;;;12.31;69.04;101193.75;5018294;28;45415;-68
2023/12/26 06:25:19;;;;;;;;;2.00;2.00;;;;;12.36;68.61;101199.00;4990112;28;45518;-67
2023/12/26 06:27:45;;;;;;;;;2.67;2.33;;;;;12.43;69.60;101211.28;4991929;28;45796;-67
2023/12/26 06:30:12;;;;;;;;;5.33;2.33;;;;;12.33;69.47;101194.63;4989776;28;45977;-67
2023/12/26 06:32:37;;;;;;;;;5.67;3.00;;;;;12.39;70.44;101209.56;4995912;28;45543;-67
2023/12/26 06:35:03;;;;;;;;;3.67;2.00;;;;;12.39;70.13;101218.31;4993422;28;45435;-67
2023/12/26 06:37:29;;;;;;;;;5.00;2.00;;;;;12.38;70.28;101199.91;4992535;28;45277;-67
2023/12/26 06:39:55;;;;;;;;;4.33;2.00;;;;;12.33;70.75;101194.63;4993634;28;46551;-65
2023/12/26 06:42:21;;;;;;;;;4.00;2.00;;;;;12.30;70.91;101203.38;4995352;28;45536;-66
2023/12/26 06:44:47;;;;;;;;;1.00;1.00;;;;;12.33;71.22;101217.41;4995579;28;45364;-67
2023/12/26 06:47:12;;;;;;;;;3.33;3.00;;;;;12.29;71.94;101214.78;5013460;28;45530;-67
2023/12/26 06:49:53;;;;;;;;;3.33;1.33;;;;;12.13;71.92;101206.84;4982278;28;46192;-67
2023/12/26 06:52:46;;;;;;;;;3.67;1.67;;;;;12.17;71.94;101234.84;4995116;28;45411;-66
2023/12/26 06:55:33;;;;;;;;;3.67;3.67;;;;;12.22;72.60;101248.88;4988479;28;45372;-67
2023/12/26 06:57:59;;;;;;;;;2.33;2.00;;;;;12.12;72.61;101234.84;4992141;28;45467;-67
2023/12/26 07:00:25;;;;;;;;;7.67;2.00;;;;;12.21;72.90;101253.25;4993904;28;46183;-66
2023/12/26 07:02:55;;;;;;;;;4.00;3.00;;;;;12.23;72.25;101254.13;4998017;28;45344;-70
2023/12/26 07:05:21;;;;;;;;;1.67;1.67;;;;;12.17;72.79;101242.72;4998043;28;45478;-68
2023/12/26 07:07:48;;;;;;;;;7.67;3.00;;;;;12.17;72.39;101243.63;4998752;28;45376;-66
2023/12/26 07:10:20;;;;;;;;;4.33;3.33;;;;;12.00;73.06;101240.03;4997447;28;46749;-66
2023/12/26 07:12:58;;;;;;;;;4.00;2.33;;;;;11.98;73.62;101244.41;4997709;28;45727;-66
2023/12/26 07:15:25;;;;;;;;;2.33;2.00;;;;;11.95;73.61;101245.28;4998254;28;45772;-66
2023/12/26 07:17:51;;;;;;;;;4.00;3.00;;;;;12.07;73.13;101273.34;4997870;28;45512;-68
2023/12/26 07:20:17;;;;;;;;;4.00;3.00;;;;;12.02;73.33;101260.19;4997955;28;45636;-69
2023/12/26 07:22:43;;;;;;;;;3.67;2.33;;;;;12.04;73.50;101273.31;4997064;28;45500;-65
2023/12/26 07:25:10;;;;;;;;;3.00;3.00;;;;;12.12;73.29;101287.34;4996958;28;45369;-67
2023/12/26 07:27:36;;;;;;;;;5.67;2.67;;;;;12.13;73.51;101286.50;4997054;28;45336;-66
2023/12/26 07:30:01;;;;;;;;;3.67;3.33;;;;;12.07;72.66;101281.22;4997820;28;45716;-67
2023/12/26 07:32:27;;;;;;;;;7.00;3.00;;;;;12.15;72.50;101303.16;4996725;28;45442;-67
2023/12/26 07:35:09;;;;;;;;;3.00;1.67;;;;;11.93;72.54;101264.50;4997170;28;45460;-68
2023/12/26 07:37:35;;;;;;;;;9.33;4.00;;;;;11.79;72.91;101238.16;4997034;28;46730;-68
2023/12/26 07:40:00;;;;;;;;;8.33;3.00;;;;;12.18;72.49;101316.28;4996390;28;46199;-66
2023/12/26 07:42:26;;;;;;;;;3.67;3.67;;;;;12.09;72.80;101311.84;4996675;28;45336;-67
2023/12/26 07:44:52;;;;;;;;;2.33;2.33;;;;;12.21;72.25;101339.03;4997542;28;45493;-66
2023/12/26 07:47:17;;;;;;;;;4.00;3.00;;;;;12.21;72.85;101325.91;4997951;28;45505;-67
2023/12/26 07:49:43;;;;;;;;;2.67;2.33;;;;;11.83;72.10;101259.19;4997029;28;46036;-66
2023/12/26 07:52:09;;;;;;;;;2.33;2.00;;;;;12.18;72.35;101328.53;4997809;28;45420;-66
2023/12/26 07:54:35;;;;;;;;;2.00;2.00;;;;;12.25;72.29;101338.19;4996865;28;45400;-68
2023/12/26 07:57:01;;;;;;;;;1.33;1.33;;;;;12.25;71.88;101341.69;4996415;28;45969;-68
2023/12/26 07:59:26;;;;;;;;;2.67;2.00;;;;;12.30;72.16;101357.47;4999948;28;45564;-68
2023/12/26 08:01:52;;;;;;;;;5.67;2.67;;;;;12.19;72.49;101323.28;4999538;28;45421;-69
2023/12/26 08:04:18;;;;;;;;;2.00;2.00;;;;;12.31;72.75;101359.22;5000306;28;45435;-67
2023/12/26 08:06:43;;;;;;;;;5.00;3.00;;;;;12.32;72.05;101357.50;4998522;28;45416;-69
2023/12/26 08:09:09;;;;;;;;;10.00;5.33;;;;;12.13;72.33;101325.88;5000697;28;45652;-68
2023/12/26 08:11:36;;;;;;;;;7.00;4.33;;;;;12.33;72.58;101373.25;4999797;28;45458;-69
2023/12/26 08:14:05;;;;;;;;;9.33;2.33;;;;;12.30;72.83;101381.13;4998835;28;45535;-67
2023/12/26 08:16:31;;;;;;;;;5.33;2.00;;;;;12.31;72.61;101377.59;5001491;28;46064;-67
2023/12/26 08:18:58;;;;;;;;;3.00;3.00;;;;;12.26;72.84;101367.06;4997296;28;45437;-65
2023/12/26 08:21:25;;;;;;;;;6.00;4.00;;;;;12.33;72.19;101385.50;4987644;28;45480;-67
2023/12/26 08:23:54;;;;;;;;;6.67;3.00;;;;;12.33;72.63;101383.75;4984923;28;45449;-66
2023/12/26 08:26:21;;;;;;;;;2.33;2.00;;;;;11.87;72.81;101315.25;4980978;28;45484;-68
2023/12/26 08:28:47;;;;;;;;;3.00;2.67;;;;;12.36;72.82;101382.88;4990631;28;45541;-66
2023/12/26 08:31:14;;;;;;;;;4.67;3.00;;;;;12.23;72.71;101360.94;4985222;28;45888;-67
2023/12/26 08:33:49;;;;;;;;;2.00;2.00;;;;;12.40;72.71;101408.31;4992646;28;45561;-66
2023/12/26 08:36:14;;;;;;;;;4.00;2.00;;;;;11.79;72.90;101311.66;4987186;28;45482;-67
2023/12/26 08:38:41;;;;;;;;;5.00;2.33;;;;;12.21;72.76;101378.44;4989397;28;45435;-67
2023/12/26 08:41:13;;;;;;;;;5.67;4.33;;;;;12.41;72.19;101405.72;4988740;28;45785;-67
2023/12/26 08:43:39;;;;;;;;;11.75;9.25;;;;;12.28;72.66;101391.59;4990804;28;45423;-68
2023/12/26 08:46:22;;;;;;;;;16.00;14.50;;;;;12.25;72.51;101388.09;4992403;28;45490;-67
2023/12/26 08:48:52;;;;;;;;;7.33;6.00;;;;;12.43;72.67;101414.47;4998754;28;46122;-67
2023/12/26 08:51:19;;;;;;;;;5.67;4.00;;;;;12.43;72.67;101410.94;4983613;28;45526;-69
2023/12/26 08:53:47;;;;;;;;;4.00;3.00;;;;;12.41;72.78;101413.59;4981630;28;46194;-67
2023/12/26 08:56:16;;;;;;;;;3.33;3.00;;;;;12.39;72.82;101410.06;4983895;28;45386;-66
2023/12/26 08:58:42;;;;;;;;;2.33;2.00;;;;;12.37;72.97;101403.06;4982281;28;46292;-67
2023/12/26 09:01:10;;;;;;;;;5.33;2.00;;;;;12.46;73.19;101422.38;4993524;28;45349;-67
2023/12/26 09:03:37;;;;;;;;;3.67;3.00;;;;;12.34;73.18;101403.00;4995220;28;45385;-68
2023/12/26 09:06:04;;;;;;;;;6.00;2.00;;;;;12.12;73.86;101371.38;4981753;28;45566;-67
2023/12/26 09:08:29;;;;;;;;;3.33;3.00;;;;;12.40;74.26;101430.19;4988991;28;45441;-66
2023/12/26 09:10:55;;;;;;;;;1.67;1.67;;;;;12.47;74.68;101449.50;4995321;28;46148;-68
2023/12/26 09:13:21;;;;;;;;;9.67;3.33;;;;;12.40;75.03;101434.59;4991481;28;45550;-66
2023/12/26 09:15:50;;;;;;;;;3.00;2.00;;;;;12.40;75.27;101452.97;4988303;28;45513;-67
2023/12/26 09:19:06;;;;;;;;;3.67;3.67;;;;;12.39;75.74;101456.50;5000665;28;45733;-66
2023/12/26 09:21:33;;;;;;;;;7.00;3.00;;;;;12.43;75.45;101461.78;4981044;28;45238;-68
2023/12/26 09:23:58;;;;;;;;;3.67;2.00;;;;;11.99;75.71;101393.19;4980033;28;45448;-68
2023/12/26 09:26:38;;;;;;;;;5.33;3.00;;;;;12.48;75.30;101485.41;4996366;28;45582;-66
2023/12/26 09:29:08;;;;;;;;;3.00;2.00;;;;;12.33;75.23;101465.19;4993566;28;45387;-66
2023/12/26 09:31:43;;;;;;;;;5.67;2.33;;;;;12.38;75.87;101470.47;4996899;28;45483;-67
2023/12/26 09:34:10;;;;;;;;;4.00;3.00;;;;;12.45;75.84;101488.91;4995925;28;45470;-68
2023/12/26 09:36:36;;;;;;;;;7.67;2.00;;;;;12.06;76.29;101426.50;4993216;28;45487;-69
2023/12/26 09:39:02;;;;;;;;;3.00;2.00;;;;;12.34;76.29;101477.47;4996944;28;45720;-69
2023/12/26 09:41:28;;;;;;;;;3.00;3.00;;;;;11.79;76.38;101393.00;4986168;28;45479;-68
2023/12/26 09:43:54;;;;;;;;;6.67;3.00;;;;;12.22;76.40;101456.34;4999565;28;45340;-67
2023/12/26 09:46:20;;;;;;;;;4.00;3.00;;;;;12.20;76.34;101472.13;4998255;28;45480;-66
2023/12/26 09:48:46;;;;;;;;;4.67;2.33;;;;;12.48;76.53;101538.88;4998798;28;45450;-67
2023/12/26 09:51:37;;;;;;;;;4.33;3.00;;;;;12.38;76.17;101502.88;4997047;28;45879;-66
2023/12/26 09:54:05;;;;;;;;;5.00;3.00;;;;;12.27;76.33;101488.81;4998392;28;45455;-66
2023/12/26 09:56:34;;;;;;;;;4.00;1.00;;;;;12.06;76.71;101447.50;4993116;28;45345;-67
2023/12/26 09:59:01;;;;;;;;;4.00;2.00;;;;;12.38;76.13;101500.25;4993610;28;45376;-67
2023/12/26 10:01:27;;;;;;;;;3.33;3.00;;;;;12.54;76.49;101530.13;4994028;28;45395;-68
2023/12/26 10:03:54;;;;;;;;;9.00;5.67;;;;;12.32;76.29;101494.97;4998017;28;45602;-67
2023/12/26 10:06:20;;;;;;;;;7.00;4.00;;;;;12.57;76.47;101553.78;4998419;28;45445;-67
2023/12/26 10:08:45;;;;;;;;;2.33;2.00;;;;;11.56;75.75;101401.59;4997601;28;46667;-68
2023/12/26 10:11:26;;;;;;;;;8.00;4.33;;;;;12.37;76.44;101531.78;4997737;28;45415;-69
2023/12/26 10:13:55;;;;;;;;;3.00;2.00;;;;;11.94;76.41;101444.78;4996703;28;45516;-67
2023/12/26 10:16:24;;;;;;;;;4.00;3.00;;;;;12.59;76.42;101561.69;4996767;28;45565;-68
2023/12/26 10:18:50;;;;;;;;;4.00;4.00;;;;;12.46;75.75;101535.34;4996154;28;47775;-67
2023/12/26 10:21:17;;;;;;;;;2.67;2.00;;;;;12.58;75.77;101542.44;4997688;28;45535;-68
2023/12/26 10:23:45;;;;;;;;;4.00;2.00;;;;;12.38;75.49;101518.63;4996730;28;45267;-67
2023/12/26 10:26:11;;;;;;;;;2.33;2.33;;;;;12.62;75.95;101548.56;4996968;28;45444;-66
2023/12/26 10:28:39;;;;;;;;;4.00;3.00;;;;;12.63;75.80;101552.97;4997220;28;45645;-68
2023/12/26 10:31:15;;;;;;;;;1.67;1.67;;;;;12.64;75.86;101545.09;4996122;28;45374;-66
2023/12/26 10:33:42;;;;;;;;;3.67;2.00;;;;;12.68;76.06;101549.50;4997613;28;45470;-66
2023/12/26 10:36:10;;;;;;;;;3.67;3.67;;;;;12.69;75.84;101553.00;4997435;28;45550;-67
2023/12/26 10:38:39;;;;;;;;;3.67;3.67;;;;;12.67;76.09;101563.53;4998537;28;46389;-67
2023/12/26 10:41:10;;;;;;;;;5.00;3.00;;;;;12.69;76.12;101564.41;4997525;28;45524;-68
2023/12/26 10:43:42;;;;;;;;;4.00;3.00;;;;;12.60;75.60;101550.31;4997242;28;45543;-66
2023/12/26 10:46:12;;;;;;;;;1.00;1.00;;;;;12.59;75.79;101533.66;4996836;28;45417;-67
2023/12/26 10:48:43;;;;;;;;;4.67;3.00;;;;;12.68;77.56;101578.41;4996255;28;47731;-67
2023/12/26 10:51:09;;;;;;;;;6.00;6.00;;;;;12.07;76.44;101437.00;4995979;28;45582;-70
2023/12/26 10:53:43;;;;;;;;;3.00;3.00;;;;;12.72;76.05;101542.53;4997192;28;45293;-68
2023/12/26 10:56:12;;;;;;;;;2.00;2.00;;;;;12.86;75.59;101563.63;4995310;28;45453;-67
2023/12/26 10:58:39;;;;;;;;;4.33;2.00;;;;;12.71;75.90;101519.72;4984191;28;46549;-69
2023/12/26 13:53:14;;;;;;;;;5.67;3.00;;;;;13.08;76.09;101530.44;4996888;28;45703;-66
2023/12/26 13:56:20;;;;;;;;;7.33;2.00;;;;;13.04;76.00;101528.66;4993284;28;45298;-66
2023/12/26 13:59:23;;;;;;;;;4.00;1.33;;;;;13.01;75.92;101528.66;4993702;28;45407;-70
2023/12/26 14:02:28;;;;;;;;;6.67;3.00;;;;;13.01;76.36;101532.16;4992720;28;46070;-68
2023/12/26 14:05:31;;;;;;;;;3.67;3.00;;;;;13.06;76.51;101533.03;4997973;28;45446;-67
2023/12/26 14:08:37;;;;;;;;;1.00;1.00;;;;;13.09;76.21;101538.31;4997715;28;45506;-67
2023/12/26 14:11:40;;;;;;;;;6.33;4.00;;;;;13.09;76.32;101533.06;4996725;28;45557;-65
2023/12/26 14:14:43;;;;;;;;;4.00;4.00;;;;;13.06;76.24;101529.56;4998198;28;45433;-66
2023/12/26 14:17:46;;;;;;;;;3.33;3.00;;;;;13.05;76.83;101525.16;4998486;28;45426;-66
2023/12/26 14:20:49;;;;;;;;;3.67;2.00;;;;;13.04;76.59;101532.16;4998593;28;45377;-67
2023/12/26 14:23:52;;;;;;;;;4.00;2.00;;;;;13.05;76.31;101531.31;4996524;28;45585;-66